createdAt,value
2023-03-07T00:00:39.800Z,98956.70
2023-03-07T00:03:16.586Z,98956.09
2023-03-07T00:05:45.265Z,98957.34
2023-03-07T00:08:13.524Z,98957.52
2023-03-07T00:10:42.132Z,98957.52
2023-03-07T00:13:13.906Z,98950.79
2023-03-07T00:15:42.351Z,98951.08
2023-03-07T00:18:10.632Z,98953.39
2023-03-07T00:20:38.910Z,98949.98
2023-03-07T00:23:07.420Z,98950.84
2023-03-07T00:25:36.489Z,98950.37
2023-03-07T00:28:04.696Z,98945.52
2023-03-07T00:30:32.836Z,98942.42
2023-03-07T00:33:01.015Z,98942.86
2023-03-07T00:35:29.392Z,98945.23
2023-03-07T00:37:57.678Z,98935.41
2023-03-07T00:40:26.047Z,98936.83
2023-03-07T00:42:54.326Z,98933.35
2023-03-07T00:45:22.488Z,98931.94
2023-03-07T00:47:50.891Z,98933.36
2023-03-07T00:50:19.094Z,98929.06
2023-03-07T00:52:47.332Z,98926.42
2023-03-07T00:55:15.706Z,98918.23
2023-03-07T00:57:44.094Z,98915.23
2023-03-07T01:00:13.174Z,98910.81
2023-03-07T01:02:41.377Z,98908.42
2023-03-07T01:05:10.142Z,98906.79
2023-03-07T01:07:38.511Z,98903.13
2023-03-07T01:10:07.430Z,98897.11
2023-03-07T01:12:35.981Z,98895.38
2023-03-07T01:15:06.674Z,98891.03
2023-03-07T01:17:35.108Z,98884.34
2023-03-07T01:20:07.231Z,98882.68
2023-03-07T01:22:37.416Z,98879.23
2023-03-07T01:25:08.235Z,98877.50
2023-03-07T01:27:36.764Z,98874.20
2023-03-07T01:30:07.611Z,98873.69
2023-03-07T01:32:39.950Z,98870.17
2023-03-07T01:35:09.216Z,98870.67
2023-03-07T01:37:37.704Z,98869.23
2023-03-07T01:40:08.234Z,98867.77
2023-03-07T01:42:36.508Z,98864.19
2023-03-07T01:45:06.985Z,98863.65
2023-03-07T01:47:48.922Z,98859.95
2023-03-07T01:50:19.049Z,98859.35
2023-03-07T01:53:16.009Z,98855.67
2023-03-07T01:55:45.302Z,98852.05
2023-03-07T01:58:19.418Z,98852.74
2023-03-07T02:00:47.582Z,98848.63
2023-03-07T02:03:26.613Z,98848.30
2023-03-07T02:06:00.025Z,98849.63
2023-03-07T02:08:31.278Z,98847.51
2023-03-07T02:10:59.552Z,98844.27
2023-03-07T02:13:27.813Z,98841.33
2023-03-07T02:15:57.962Z,98837.91
2023-03-07T02:18:29.859Z,98833.06
2023-03-07T02:21:12.487Z,98828.73
2023-03-07T02:24:22.769Z,98827.48
2023-03-07T02:26:53.510Z,98827.14
2023-03-07T02:29:22.072Z,98825.40
2023-03-07T02:31:50.774Z,98824.33
2023-03-07T02:34:23.845Z,98820.42
2023-03-07T02:37:12.509Z,98816.96
2023-03-07T02:39:45.595Z,98817.87
2023-03-07T02:42:20.141Z,98809.92
2023-03-07T02:45:00.496Z,98807.36
2023-03-07T02:47:31.036Z,98809.23
2023-03-07T02:49:59.704Z,98808.49
2023-03-07T02:52:28.818Z,98804.33
2023-03-07T02:54:58.717Z,98805.75
2023-03-07T02:57:29.239Z,98805.18
2023-03-07T02:59:57.747Z,98800.88
2023-03-07T03:02:26.822Z,98799.56
2023-03-07T03:04:54.977Z,98797.21
2023-03-07T03:07:24.595Z,98794.33
2023-03-07T03:09:52.883Z,98793.34
2023-03-07T03:12:21.830Z,98788.41
2023-03-07T03:14:50.563Z,98784.56
2023-03-07T03:17:18.933Z,98780.58
2023-03-07T03:19:47.373Z,98777.17
2023-03-07T03:22:15.699Z,98772.84
2023-03-07T03:24:46.536Z,98764.84
2023-03-07T03:27:16.858Z,98769.80
2023-03-07T03:29:45.580Z,98766.98
2023-03-07T03:32:14.076Z,98765.55
2023-03-07T03:34:44.662Z,98759.86
2023-03-07T03:37:13.129Z,98756.05
2023-03-07T03:39:42.018Z,98754.40
2023-03-07T03:42:10.908Z,98750.84
2023-03-07T03:44:39.182Z,98748.06
2023-03-07T03:47:07.357Z,98747.83
2023-03-07T03:49:35.631Z,98750.63
2023-03-07T03:52:05.221Z,98744.16
2023-03-07T03:54:34.139Z,98738.11
2023-03-07T03:57:02.622Z,98741.59
2023-03-07T03:59:31.573Z,98739.64
2023-03-07T04:02:00.090Z,98735.85
2023-03-07T04:04:29.603Z,98737.36
2023-03-07T04:06:59.406Z,98733.59
2023-03-07T04:09:27.799Z,98731.65
2023-03-07T04:11:55.974Z,98725.82
2023-03-07T04:14:24.441Z,98729.73
2023-03-07T04:16:52.812Z,98727.02
2023-03-07T04:19:22.067Z,98726.02
2023-03-07T04:21:51.128Z,98721.60
2023-03-07T04:24:19.493Z,98716.89
2023-03-07T04:26:48.409Z,98718.63
2023-03-07T04:29:17.111Z,98717.63
2023-03-07T04:31:55.375Z,98715.95
2023-03-07T04:34:23.649Z,98712.15
2023-03-07T04:36:51.938Z,98709.84
2023-03-07T04:39:20.530Z,98709.21
2023-03-07T04:41:48.925Z,98708.23
2023-03-07T04:44:21.257Z,98705.85
2023-03-07T04:46:49.635Z,98703.04
2023-03-07T04:49:18.501Z,98701.36
2023-03-07T04:51:46.714Z,98698.67
2023-03-07T04:54:17.147Z,98695.63
2023-03-07T04:56:47.070Z,98689.39
2023-03-07T04:59:15.225Z,98686.58
2023-03-07T05:01:43.715Z,98681.14
2023-03-07T05:04:12.314Z,98675.55
2023-03-07T05:06:40.772Z,98672.89
2023-03-07T05:09:09.762Z,98665.89
2023-03-07T05:11:38.051Z,98663.95
2023-03-07T05:14:07.861Z,98661.45
2023-03-07T05:16:36.034Z,98660.48
2023-03-07T05:19:06.091Z,98658.84
2023-03-07T05:21:34.762Z,98662.14
2023-03-07T05:24:03.434Z,98661.53
2023-03-07T05:26:32.421Z,98658.14
2023-03-07T05:29:01.236Z,98663.94
2023-03-07T05:31:29.841Z,98660.61
2023-03-07T05:33:58.266Z,98660.16
2023-03-07T05:36:26.546Z,98658.98
2023-03-07T05:38:56.654Z,98657.33
2023-03-07T05:41:25.865Z,98655.64
2023-03-07T05:43:55.687Z,98654.46
2023-03-07T05:46:24.862Z,98651.91
2023-03-07T05:48:54.064Z,98648.88
2023-03-07T05:51:22.548Z,98647.45
2023-03-07T05:53:51.125Z,98641.73
2023-03-07T05:56:19.821Z,98638.27
2023-03-07T05:58:48.300Z,98635.91
2023-03-07T06:01:16.678Z,98633.18
2023-03-07T06:03:45.518Z,98628.98
2023-03-07T06:06:14.779Z,98628.48
2023-03-07T06:08:43.389Z,98624.70
2023-03-07T06:11:11.844Z,98619.35
2023-03-07T06:13:40.626Z,98616.41
2023-03-07T06:16:09.013Z,98616.73
2023-03-07T06:18:39.730Z,98615.52
2023-03-07T06:21:09.128Z,98613.98
2023-03-07T06:23:41.292Z,98613.89
2023-03-07T06:26:15.728Z,98615.41
2023-03-07T06:28:46.002Z,98615.16
2023-03-07T06:31:17.429Z,98613.71
2023-03-07T06:33:47.804Z,98615.78
2023-03-07T06:36:19.074Z,98614.98
2023-03-07T06:38:49.997Z,98611.34
2023-03-07T06:41:18.719Z,98609.84
2023-03-07T06:43:51.796Z,98605.88
2023-03-07T06:46:21.735Z,98605.60
2023-03-07T06:48:52.342Z,98602.41
2023-03-07T06:51:21.428Z,98598.77
2023-03-07T06:53:50.325Z,98592.41
2023-03-07T06:56:19.412Z,98590.63
2023-03-07T06:58:48.996Z,98588.64
2023-03-07T07:01:20.215Z,98585.89
2023-03-07T07:03:50.803Z,98582.35
2023-03-07T07:06:19.598Z,98576.19
2023-03-07T07:08:49.296Z,98573.39
2023-03-07T07:11:17.871Z,98571.53
2023-03-07T07:13:46.377Z,98567.26
2023-03-07T07:16:15.601Z,98567.63
2023-03-07T07:18:45.562Z,98571.62
2023-03-07T07:21:13.974Z,98567.81
2023-03-07T07:23:42.633Z,98568.79
2023-03-07T07:26:11.528Z,98568.09
2023-03-07T07:28:40.319Z,98568.89
2023-03-07T07:31:09.423Z,98561.44
2023-03-07T07:33:37.994Z,98568.27
2023-03-07T07:36:07.790Z,98568.95
2023-03-07T07:38:36.976Z,98562.98
2023-03-07T07:41:05.704Z,98561.40
2023-03-07T07:43:35.008Z,98553.83
2023-03-07T07:46:11.909Z,98554.14
2023-03-07T07:48:40.871Z,98550.83
2023-03-07T07:51:09.974Z,98549.91
2023-03-07T07:53:38.867Z,98552.58
2023-03-07T07:56:08.368Z,98546.78
2023-03-07T07:58:36.853Z,98547.48
2023-03-07T08:01:19.971Z,98544.83
2023-03-07T08:03:49.124Z,98548.14
2023-03-07T08:06:23.136Z,98538.91
2023-03-07T08:08:52.086Z,98543.95
2023-03-07T08:11:22.004Z,98534.67
2023-03-07T08:13:50.899Z,98528.21
2023-03-07T08:16:22.886Z,98528.09
2023-03-07T08:18:56.697Z,98526.77
2023-03-07T08:21:26.267Z,98520.24
2023-03-07T08:23:55.854Z,98520.00
2023-03-07T08:26:24.869Z,98522.20
2023-03-07T08:28:53.334Z,98521.08
2023-03-07T08:31:24.389Z,98515.58
2023-03-07T08:33:53.271Z,98511.63
2023-03-07T08:36:21.862Z,98510.45
2023-03-07T08:38:52.142Z,98502.73
2023-03-07T08:41:22.603Z,98501.79
2023-03-07T08:43:51.298Z,98502.27
2023-03-07T08:46:19.746Z,98501.02
2023-03-07T08:48:48.250Z,98501.11
2023-03-07T08:51:18.695Z,98500.71
2023-03-07T08:53:47.455Z,98494.29
2023-03-07T08:56:20.047Z,98494.34
2023-03-07T08:58:48.630Z,98494.47
2023-03-07T09:01:17.096Z,98491.52
2023-03-07T09:03:45.485Z,98492.42
2023-03-07T09:06:19.907Z,98488.33
2023-03-07T09:08:49.323Z,98482.71
2023-03-07T09:11:18.814Z,98489.08
2023-03-07T09:13:52.396Z,98485.98
2023-03-07T09:16:22.453Z,98484.13
2023-03-07T09:18:51.109Z,98489.96
2023-03-07T09:21:20.202Z,98495.08
2023-03-07T09:23:48.689Z,98494.75
2023-03-07T09:26:17.697Z,98492.40
2023-03-07T09:28:46.606Z,98490.65
2023-03-07T09:31:16.843Z,98489.16
2023-03-07T09:33:46.792Z,98486.78
2023-03-07T09:36:16.620Z,98481.98
2023-03-07T09:38:45.016Z,98483.52
2023-03-07T09:42:01.940Z,98483.34
2023-03-07T09:44:33.287Z,98466.88
2023-03-07T09:48:02.073Z,98472.16
2023-03-07T09:50:45.608Z,98472.34
2023-03-07T09:53:37.772Z,98467.17
2023-03-07T09:56:11.955Z,98463.94
2023-03-07T09:58:45.475Z,98462.48
2023-03-07T10:01:20.899Z,98457.15
2023-03-07T10:04:02.913Z,98455.01
2023-03-07T10:06:43.637Z,98454.55
2023-03-07T10:09:25.615Z,98452.52
2023-03-07T10:12:04.929Z,98450.92
2023-03-07T10:14:49.877Z,98460.25
2023-03-07T10:17:52.451Z,98459.76
2023-03-07T10:20:48.156Z,98457.08
2023-03-07T10:23:41.725Z,98455.45
2023-03-07T10:26:22.918Z,98458.31
2023-03-07T10:28:53.034Z,98453.73
2023-03-07T10:31:40.210Z,98456.20
2023-03-07T10:34:26.341Z,98451.92
2023-03-07T10:37:08.869Z,98449.05
2023-03-07T10:40:05.127Z,98453.96
2023-03-07T10:42:37.094Z,98451.17
2023-03-07T10:45:06.130Z,98446.39
2023-03-07T10:47:34.530Z,98441.10
2023-03-07T10:50:16.096Z,98434.29
2023-03-07T10:52:50.423Z,98432.27
2023-03-07T10:55:35.964Z,98432.42
2023-03-07T10:58:26.476Z,98433.54
2023-03-07T11:01:07.305Z,98432.36
2023-03-07T11:03:55.313Z,98422.69
2023-03-07T11:06:35.043Z,98425.85
2023-03-07T11:09:34.777Z,98419.90
2023-03-07T11:12:05.927Z,98417.27
2023-03-07T11:14:49.264Z,98411.86
2023-03-07T11:17:24.421Z,98408.26
2023-03-07T11:19:57.400Z,98410.77
2023-03-07T11:22:30.247Z,98406.29
2023-03-07T11:25:13.506Z,98399.30
2023-03-07T11:27:56.605Z,98395.08
2023-03-07T11:30:47.440Z,98399.72
2023-03-07T11:33:34.323Z,98396.42
2023-03-07T11:36:12.520Z,98395.63
2023-03-07T11:39:00.669Z,98396.61
2023-03-07T11:41:38.710Z,98389.05
2023-03-07T11:44:26.101Z,98394.88
2023-03-07T11:47:22.539Z,98397.19
2023-03-07T11:50:14.316Z,98387.70
2023-03-07T11:52:53.507Z,98378.78
2023-03-07T11:55:53.946Z,98377.73
2023-03-07T11:58:31.544Z,98373.77
2023-03-07T12:01:00.115Z,98367.16
2023-03-07T12:04:06.621Z,98366.08
2023-03-07T12:07:10.892Z,98359.45
2023-03-07T12:10:05.634Z,98355.94
2023-03-07T12:12:50.051Z,98358.48
2023-03-07T12:15:27.058Z,98354.60
2023-03-07T12:18:29.423Z,98352.63
2023-03-07T12:21:22.360Z,98354.16
2023-03-07T12:23:58.639Z,98351.37
2023-03-07T12:26:51.805Z,98343.10
2023-03-07T12:29:28.123Z,98337.81
2023-03-07T12:32:01.119Z,98337.10
2023-03-07T12:34:42.109Z,98339.20
2023-03-07T12:37:16.656Z,98338.98
2023-03-07T12:39:53.136Z,98334.67
2023-03-07T12:42:33.883Z,98333.02
2023-03-07T12:45:06.816Z,98332.95
2023-03-07T12:48:02.795Z,98330.80
2023-03-07T12:51:02.928Z,98327.52
2023-03-07T12:53:31.288Z,98323.05
2023-03-07T12:56:12.989Z,98319.99
2023-03-07T12:59:03.705Z,98321.26
2023-03-07T13:01:39.436Z,98322.02
2023-03-07T13:04:31.274Z,98317.42
2023-03-07T13:07:30.352Z,98314.62
2023-03-07T13:10:01.263Z,98315.89
2023-03-07T13:12:38.993Z,98319.83
2023-03-07T13:15:28.017Z,98312.45
2023-03-07T13:18:01.374Z,98308.64
2023-03-07T13:20:29.751Z,98307.15
2023-03-07T13:23:01.193Z,98303.69
2023-03-07T13:25:31.292Z,98300.57
2023-03-07T13:28:02.041Z,98295.48
2023-03-07T13:30:34.599Z,98296.95
2023-03-07T13:33:29.878Z,98296.56
2023-03-07T13:36:00.254Z,98292.11
2023-03-07T13:38:34.826Z,98289.73
2023-03-07T13:41:05.703Z,98292.21
2023-03-07T13:43:44.600Z,98290.29
2023-03-07T13:46:24.956Z,98286.11
2023-03-07T13:48:54.051Z,98283.22
2023-03-07T13:51:22.744Z,98283.98
2023-03-07T13:53:54.984Z,98279.30
2023-03-07T13:56:29.323Z,98277.50
2023-03-07T13:59:11.445Z,98278.27
2023-03-07T14:01:40.985Z,98269.54
2023-03-07T14:04:41.069Z,98272.27
2023-03-07T14:07:25.207Z,98261.35
2023-03-07T14:09:56.346Z,98258.48
2023-03-07T14:13:06.414Z,98255.85
2023-03-07T14:15:57.172Z,98257.89
2023-03-07T14:18:37.589Z,98253.58
2023-03-07T14:21:21.638Z,98254.14
2023-03-07T14:24:08.660Z,98253.61
2023-03-07T14:26:51.874Z,98253.35
2023-03-07T14:29:31.228Z,98252.78
2023-03-07T14:32:01.243Z,98249.43
2023-03-07T14:34:33.093Z,98256.31
2023-03-07T14:37:07.713Z,98251.74
2023-03-07T14:39:45.205Z,98249.16
2023-03-07T14:42:22.700Z,98246.45
2023-03-07T14:45:04.588Z,98247.33
2023-03-07T14:48:08.262Z,98245.98
2023-03-07T14:50:40.306Z,98240.44
2023-03-07T14:53:28.389Z,98242.48
2023-03-07T14:56:01.697Z,98241.52
2023-03-07T14:58:32.863Z,98240.99
2023-03-07T15:01:14.621Z,98235.84
2023-03-07T15:03:54.278Z,98235.21
2023-03-07T15:06:26.175Z,98239.86
2023-03-07T15:09:00.718Z,98231.01
2023-03-07T15:11:35.059Z,98229.42
2023-03-07T15:14:18.131Z,98232.70
2023-03-07T15:17:02.350Z,98230.73
2023-03-07T15:19:33.979Z,98230.41
2023-03-07T15:22:06.279Z,98224.30
2023-03-07T15:24:38.576Z,98225.58
2023-03-07T15:27:10.815Z,98220.77
2023-03-07T15:29:46.155Z,98216.58
2023-03-07T15:32:37.317Z,98218.39
2023-03-07T15:35:09.453Z,98213.30
2023-03-07T15:37:58.210Z,98215.44
2023-03-07T15:40:34.178Z,98210.64
2023-03-07T15:43:04.532Z,98211.46
2023-03-07T15:45:34.992Z,98212.61
2023-03-07T15:48:16.063Z,98209.58
2023-03-07T15:50:52.578Z,98204.24
2023-03-07T15:53:28.403Z,98202.81
2023-03-07T15:56:04.066Z,98201.52
2023-03-07T15:58:37.406Z,98196.63
2023-03-07T16:01:24.617Z,98196.23
2023-03-07T16:03:56.466Z,98193.75
2023-03-07T16:06:43.718Z,98192.79
2023-03-07T16:09:17.567Z,98188.17
2023-03-07T16:11:46.879Z,98191.08
2023-03-07T16:14:24.083Z,98192.68
2023-03-07T16:16:55.435Z,98192.92
2023-03-07T16:19:24.113Z,98190.46
2023-03-07T16:21:52.991Z,98192.14
2023-03-07T16:24:21.672Z,98192.12
2023-03-07T16:26:50.260Z,98190.27
2023-03-07T16:29:22.521Z,98191.32
2023-03-07T16:31:51.049Z,98186.42
2023-03-07T16:34:22.050Z,98189.30
2023-03-07T16:36:50.748Z,98189.24
2023-03-07T16:39:19.647Z,98186.55
2023-03-07T16:41:49.954Z,98191.02
2023-03-07T16:44:21.275Z,98189.77
2023-03-07T16:47:21.428Z,98191.79
2023-03-07T16:49:51.171Z,98192.07
2023-03-07T16:52:23.828Z,98194.30
2023-03-07T16:54:52.704Z,98198.15
2023-03-07T16:57:22.550Z,98200.32
2023-03-07T16:59:51.410Z,98199.51
2023-03-07T17:02:21.769Z,98203.51
2023-03-07T17:04:50.567Z,98208.58
2023-03-07T17:07:23.760Z,98208.90
2023-03-07T17:09:54.119Z,98215.05
2023-03-07T17:12:25.077Z,98216.08
2023-03-07T17:14:55.228Z,98217.96
2023-03-07T17:17:34.098Z,98215.19
2023-03-07T17:20:07.556Z,98214.14
2023-03-07T17:22:37.209Z,98218.16
2023-03-07T17:25:08.232Z,98218.48
2023-03-07T17:27:46.927Z,98219.48
2023-03-07T17:30:27.880Z,98222.03
2023-03-07T17:32:57.370Z,98221.54
2023-03-07T17:35:28.513Z,98222.66
2023-03-07T17:37:57.797Z,98220.93
2023-03-07T17:40:27.085Z,98219.69
2023-03-07T17:42:57.818Z,98222.87
2023-03-07T17:45:27.316Z,98223.01
2023-03-07T17:47:56.831Z,98220.75
2023-03-07T17:50:26.097Z,98216.38
2023-03-07T17:52:56.501Z,98225.08
2023-03-07T17:55:26.744Z,98225.43
2023-03-07T17:57:55.489Z,98218.02
2023-03-07T18:00:25.968Z,98221.65
2023-03-07T18:02:54.762Z,98219.63
2023-03-07T18:05:26.355Z,98221.76
2023-03-07T18:07:55.510Z,98217.60
2023-03-07T18:10:24.905Z,98219.61
2023-03-07T18:12:54.777Z,98218.92
2023-03-07T18:15:24.270Z,98222.33
2023-03-07T18:17:53.253Z,98225.08
2023-03-07T18:20:22.367Z,98227.02
2023-03-07T18:22:51.980Z,98225.08
2023-03-07T18:25:20.652Z,98228.38
2023-03-07T18:27:50.276Z,98229.05
2023-03-07T18:30:18.782Z,98222.46
2023-03-07T18:32:47.760Z,98219.97
2023-03-07T18:35:16.412Z,98219.94
2023-03-07T18:37:45.340Z,98224.02
2023-03-07T18:40:15.062Z,98225.14
2023-03-07T18:42:47.201Z,98222.41
2023-03-07T18:45:16.684Z,98217.95
2023-03-07T18:47:45.691Z,98216.98
2023-03-07T18:50:14.668Z,98213.33
2023-03-07T18:52:44.292Z,98217.95
2023-03-07T18:55:13.518Z,98220.75
2023-03-07T18:57:43.165Z,98217.52
2023-03-07T19:00:12.567Z,98217.66
2023-03-07T19:02:41.893Z,98211.80
2023-03-07T19:05:11.498Z,98218.30
2023-03-07T19:07:40.152Z,98214.95
2023-03-07T19:10:10.411Z,98215.95
2023-03-07T19:12:39.571Z,98217.14
2023-03-07T19:15:09.050Z,98213.75
2023-03-07T19:17:40.242Z,98219.40
2023-03-07T19:20:10.555Z,98217.21
2023-03-07T19:22:40.015Z,98218.63
2023-03-07T19:25:11.411Z,98217.56
2023-03-07T19:27:42.958Z,98218.84
2023-03-07T19:30:14.777Z,98221.70
2023-03-07T19:32:44.922Z,98219.17
2023-03-07T19:35:14.765Z,98220.06
2023-03-07T19:37:44.063Z,98222.52
2023-03-07T19:40:13.670Z,98221.75
2023-03-07T19:42:44.041Z,98221.64
2023-03-07T19:45:13.744Z,98226.37
2023-03-07T19:47:43.102Z,98230.52
2023-03-07T19:50:12.695Z,98225.73
2023-03-07T19:52:42.528Z,98226.09
2023-03-07T19:55:10.985Z,98229.25
2023-03-07T19:57:40.624Z,98230.55
2023-03-07T20:00:11.840Z,98232.48
2023-03-07T20:02:41.925Z,98233.26
2023-03-07T20:05:11.486Z,98231.79
2023-03-07T20:07:41.547Z,98234.39
2023-03-07T20:10:12.650Z,98234.06
2023-03-07T20:12:42.575Z,98238.48
2023-03-07T20:15:13.254Z,98237.97
2023-03-07T20:17:43.117Z,98240.62
2023-03-07T20:20:13.537Z,98240.90
2023-03-07T20:22:44.672Z,98245.90
2023-03-07T20:25:15.354Z,98249.05
2023-03-07T20:27:44.796Z,98250.45
2023-03-07T20:30:14.008Z,98257.04
2023-03-07T20:32:49.120Z,98259.70
2023-03-07T20:35:21.348Z,98259.84
2023-03-07T20:37:52.087Z,98260.30
2023-03-07T20:40:21.196Z,98258.19
2023-03-07T20:42:50.898Z,98261.36
2023-03-07T20:45:29.405Z,98266.44
2023-03-07T20:48:00.190Z,98271.70
2023-03-07T20:50:29.189Z,98278.59
2023-03-07T20:52:57.894Z,98285.59
2023-03-07T20:55:29.868Z,98292.14
2023-03-07T20:58:01.519Z,98303.70
2023-03-07T21:00:34.713Z,98315.20
2023-03-07T21:03:06.264Z,98314.42
2023-03-07T21:05:37.167Z,98322.81
2023-03-07T21:08:08.293Z,98332.14
2023-03-07T21:10:37.777Z,98335.70
2023-03-07T21:13:14.229Z,98341.80
2023-03-07T21:15:52.945Z,98343.32
2023-03-07T21:18:22.850Z,98345.71
2023-03-07T21:20:52.549Z,98349.55
2023-03-07T21:23:21.241Z,98346.42
2023-03-07T21:25:49.926Z,98345.80
2023-03-07T21:28:18.820Z,98347.37
2023-03-07T21:30:49.579Z,98347.23
2023-03-07T21:33:18.735Z,98349.23
2023-03-07T21:35:47.637Z,98353.34
2023-03-07T21:38:16.765Z,98349.69
2023-03-07T21:40:45.613Z,98349.36
2023-03-07T21:43:14.178Z,98353.25
2023-03-07T21:45:42.845Z,98355.52
2023-03-07T21:48:11.525Z,98356.88
2023-03-07T21:50:45.085Z,98363.70
2023-03-07T21:53:13.961Z,98363.63
2023-03-07T21:55:50.824Z,98365.77
2023-03-07T21:58:22.815Z,98361.85
2023-03-07T22:00:51.910Z,98361.08
2023-03-07T22:03:21.357Z,98363.85
2023-03-07T22:05:49.984Z,98369.09
2023-03-07T22:08:20.567Z,98370.16
2023-03-07T22:11:00.578Z,98372.96
2023-03-07T22:13:35.095Z,98371.48
2023-03-07T22:16:06.641Z,98375.44
2023-03-07T22:18:35.642Z,98373.46
2023-03-07T22:21:14.286Z,98372.91
2023-03-07T22:23:43.155Z,98378.80
2023-03-07T22:26:12.641Z,98376.94
2023-03-07T22:28:41.846Z,98382.43
2023-03-07T22:31:12.703Z,98379.90
2023-03-07T22:33:41.889Z,98380.85
2023-03-07T22:36:13.236Z,98384.58
2023-03-07T22:38:42.916Z,98382.39
2023-03-07T22:41:16.858Z,98380.02
2023-03-07T22:43:46.016Z,98382.05
2023-03-07T22:46:14.582Z,98380.27
2023-03-07T22:48:43.014Z,98382.23
2023-03-07T22:51:18.158Z,98384.56
2023-03-07T22:53:47.305Z,98381.04
2023-03-07T22:56:17.051Z,98384.45
2023-03-07T22:58:46.344Z,98384.27
2023-03-07T23:01:20.668Z,98388.39
2023-03-07T23:03:50.896Z,98385.46
2023-03-07T23:06:19.993Z,98393.64
2023-03-07T23:08:51.637Z,98396.08
2023-03-07T23:11:22.369Z,98395.10
2023-03-07T23:13:50.646Z,98398.50
2023-03-07T23:16:22.162Z,98397.42
2023-03-07T23:18:52.110Z,98401.08
2023-03-07T23:21:23.582Z,98401.27
2023-03-07T23:23:55.627Z,98401.48
2023-03-07T23:26:29.554Z,98406.33
2023-03-07T23:28:58.745Z,98408.42
2023-03-07T23:31:30.697Z,98412.02
2023-03-07T23:34:01.958Z,98418.38
2023-03-07T23:36:31.870Z,98423.75
2023-03-07T23:39:01.068Z,98429.56
2023-03-07T23:41:29.327Z,98428.37
2023-03-07T23:44:00.175Z,98427.11
2023-03-07T23:46:29.832Z,98435.84
2023-03-07T23:48:58.881Z,98441.64
2023-03-07T23:51:27.597Z,98444.73
2023-03-07T23:53:55.956Z,98448.59
2023-03-07T23:56:24.325Z,98450.38
2023-03-07T23:58:53.936Z,98453.45
